sensor_id;sensor_type;location;lat;lon;timestamp;pressure;altitude;pressure_sealevel;temperature;humidity
69127;BME280;56688;50.234;19.292;2023-04-24T00:01:36;97658.40;;;7.58;76.05
69127;BME280;56688;50.234;19.292;2023-04-24T00:04:03;97657.98;;;7.57;76.37
69127;BME280;56688;50.234;19.292;2023-04-24T00:06:31;97656.13;;;7.55;75.70
69127;BME280;56688;50.234;19.292;2023-04-24T00:09:00;97655.08;;;7.51;75.86
69127;BME280;56688;50.234;19.292;2023-04-24T00:11:27;97654.90;;;7.47;75.96
69127;BME280;56688;50.234;19.292;2023-04-24T00:13:56;97650.50;;;7.43;76.02
69127;BME280;56688;50.234;19.292;2023-04-24T00:16:23;97652.19;;;7.42;76.27
69127;BME280;56688;50.234;19.292;2023-04-24T00:18:50;97647.87;;;7.42;76.87
69127;BME280;56688;50.234;19.292;2023-04-24T00:21:20;97644.77;;;7.45;76.52
69127;BME280;56688;50.234;19.292;2023-04-24T00:23:47;97644.39;;;7.46;76.37
69127;BME280;56688;50.234;19.292;2023-04-24T00:26:14;97640.56;;;7.48;76.41
69127;BME280;56688;50.234;19.292;2023-04-24T00:28:41;97639.89;;;7.50;76.40
69127;BME280;56688;50.234;19.292;2023-04-24T00:31:08;97639.56;;;7.49;76.19
69127;BME280;56688;50.234;19.292;2023-04-24T00:33:35;97634.43;;;7.48;76.45
69127;BME280;56688;50.234;19.292;2023-04-24T00:36:02;97632.00;;;7.45;76.58
69127;BME280;56688;50.234;19.292;2023-04-24T00:38:29;97627.06;;;7.43;76.32
69127;BME280;56688;50.234;19.292;2023-04-24T00:40:56;97621.89;;;7.42;76.75
69127;BME280;56688;50.234;19.292;2023-04-24T00:43:23;97618.62;;;7.41;76.59
69127;BME280;56688;50.234;19.292;2023-04-24T00:45:50;97616.83;;;7.42;76.55
69127;BME280;56688;50.234;19.292;2023-04-24T00:48:17;97615.27;;;7.41;76.76
69127;BME280;56688;50.234;19.292;2023-04-24T00:50:45;97613.43;;;7.42;76.55
69127;BME280;56688;50.234;19.292;2023-04-24T00:53:13;97614.17;;;7.43;76.51
69127;BME280;56688;50.234;19.292;2023-04-24T00:55:40;97608.61;;;7.40;76.41
69127;BME280;56688;50.234;19.292;2023-04-24T00:58:07;97609.46;;;7.37;76.23
69127;BME280;56688;50.234;19.292;2023-04-24T01:00:34;97597.22;;;7.25;76.26
69127;BME280;56688;50.234;19.292;2023-04-24T01:03:04;97604.75;;;7.28;76.53
69127;BME280;56688;50.234;19.292;2023-04-24T01:05:32;97604.59;;;7.23;75.86
69127;BME280;56688;50.234;19.292;2023-04-24T01:08:01;97605.32;;;7.21;76.40
69127;BME280;56688;50.234;19.292;2023-04-24T01:10:29;97601.52;;;7.19;76.37
69127;BME280;56688;50.234;19.292;2023-04-24T01:12:58;97596.34;;;7.16;76.01
69127;BME280;56688;50.234;19.292;2023-04-24T01:15:25;97593.59;;;7.10;75.86
69127;BME280;56688;50.234;19.292;2023-04-24T01:17:52;97596.77;;;7.06;76.07
69127;BME280;56688;50.234;19.292;2023-04-24T01:20:20;97598.75;;;7.00;75.92
69127;BME280;56688;50.234;19.292;2023-04-24T01:22:47;97594.50;;;6.93;76.56
69127;BME280;56688;50.234;19.292;2023-04-24T01:25:15;97598.55;;;6.87;76.58
69127;BME280;56688;50.234;19.292;2023-04-24T01:27:42;97595.36;;;6.80;76.66
69127;BME280;56688;50.234;19.292;2023-04-24T01:30:11;97588.32;;;6.78;76.67
69127;BME280;56688;50.234;19.292;2023-04-24T01:32:38;97589.92;;;6.80;76.65
69127;BME280;56688;50.234;19.292;2023-04-24T01:35:07;97582.85;;;6.78;76.69
69127;BME280;56688;50.234;19.292;2023-04-24T01:37:34;97585.50;;;6.77;76.56
69127;BME280;56688;50.234;19.292;2023-04-24T01:40:06;97582.34;;;6.74;76.00
69127;BME280;56688;50.234;19.292;2023-04-24T01:42:34;97577.98;;;6.70;76.26
69127;BME280;56688;50.234;19.292;2023-04-24T01:45:02;97577.59;;;6.64;76.26
69127;BME280;56688;50.234;19.292;2023-04-24T01:47:30;97574.39;;;6.57;76.07
69127;BME280;56688;50.234;19.292;2023-04-24T01:49:58;97570.52;;;6.50;75.69
69127;BME280;56688;50.234;19.292;2023-04-24T01:52:25;97570.86;;;6.43;75.75
69127;BME280;56688;50.234;19.292;2023-04-24T01:54:53;97565.76;;;6.38;76.01
69127;BME280;56688;50.234;19.292;2023-04-24T01:57:19;97565.77;;;6.33;75.95
69127;BME280;56688;50.234;19.292;2023-04-24T01:59:46;97564.03;;;6.29;75.75
69127;BME280;56688;50.234;19.292;2023-04-24T02:02:14;97564.58;;;6.24;75.93
69127;BME280;56688;50.234;19.292;2023-04-24T02:04:41;97560.58;;;6.18;76.00
69127;BME280;56688;50.234;19.292;2023-04-24T02:07:08;97558.73;;;6.14;76.04
69127;BME280;56688;50.234;19.292;2023-04-24T02:09:35;97558.02;;;6.07;75.93
69127;BME280;56688;50.234;19.292;2023-04-24T02:12:02;97547.73;;;5.92;75.60
69127;BME280;56688;50.234;19.292;2023-04-24T02:14:28;97553.73;;;5.91;75.69
69127;BME280;56688;50.234;19.292;2023-04-24T02:16:55;97552.95;;;5.85;75.82
69127;BME280;56688;50.234;19.292;2023-04-24T02:19:22;97553.44;;;5.82;76.18
69127;BME280;56688;50.234;19.292;2023-04-24T02:21:50;97551.44;;;5.80;76.24
69127;BME280;56688;50.234;19.292;2023-04-24T02:24:17;97550.30;;;5.75;76.41
69127;BME280;56688;50.234;19.292;2023-04-24T02:26:44;97544.89;;;5.70;76.19
69127;BME280;56688;50.234;19.292;2023-04-24T02:29:11;97541.84;;;5.63;76.43
69127;BME280;56688;50.234;19.292;2023-04-24T02:31:38;97540.60;;;5.56;76.43
69127;BME280;56688;50.234;19.292;2023-04-24T02:34:05;97539.13;;;5.51;76.54
69127;BME280;56688;50.234;19.292;2023-04-24T02:36:32;97534.77;;;5.48;76.89
69127;BME280;56688;50.234;19.292;2023-04-24T02:38:59;97532.10;;;5.45;76.75
69127;BME280;56688;50.234;19.292;2023-04-24T02:41:27;97529.16;;;5.44;76.60
69127;BME280;56688;50.234;19.292;2023-04-24T02:43:58;97529.67;;;5.43;76.83
69127;BME280;56688;50.234;19.292;2023-04-24T02:46:25;97530.65;;;5.41;76.82
69127;BME280;56688;50.234;19.292;2023-04-24T02:48:52;97529.89;;;5.38;76.59
69127;BME280;56688;50.234;19.292;2023-04-24T02:51:19;97532.30;;;5.36;76.66
69127;BME280;56688;50.234;19.292;2023-04-24T02:53:46;97530.05;;;5.31;76.87
69127;BME280;56688;50.234;19.292;2023-04-24T02:56:13;97533.41;;;5.25;77.05
69127;BME280;56688;50.234;19.292;2023-04-24T02:58:40;97529.99;;;5.21;76.83
69127;BME280;56688;50.234;19.292;2023-04-24T03:01:08;97532.86;;;5.16;76.97
69127;BME280;56688;50.234;19.292;2023-04-24T03:03:38;97527.73;;;5.13;77.06
69127;BME280;56688;50.234;19.292;2023-04-24T03:06:06;97530.85;;;5.12;77.32
69127;BME280;56688;50.234;19.292;2023-04-24T03:08:34;97528.34;;;5.12;77.57
69127;BME280;56688;50.234;19.292;2023-04-24T03:11:02;97528.45;;;5.11;77.04
69127;BME280;56688;50.234;19.292;2023-04-24T03:13:29;97525.80;;;5.08;77.12
69127;BME280;56688;50.234;19.292;2023-04-24T03:15:56;97525.05;;;5.06;77.31
69127;BME280;56688;50.234;19.292;2023-04-24T03:18:23;97524.33;;;5.01;77.30
69127;BME280;56688;50.234;19.292;2023-04-24T03:20:51;97531.69;;;4.98;77.51
69127;BME280;56688;50.234;19.292;2023-04-24T03:23:18;97529.90;;;4.97;77.50
69127;BME280;56688;50.234;19.292;2023-04-24T03:25:45;97527.79;;;4.97;77.60
69127;BME280;56688;50.234;19.292;2023-04-24T03:28:12;97527.22;;;4.97;77.80
69127;BME280;56688;50.234;19.292;2023-04-24T03:30:43;97527.75;;;4.99;77.89
69127;BME280;56688;50.234;19.292;2023-04-24T03:33:10;97529.38;;;5.00;78.04
69127;BME280;56688;50.234;19.292;2023-04-24T03:35:43;97527.05;;;5.00;77.76
69127;BME280;56688;50.234;19.292;2023-04-24T03:38:11;97526.81;;;5.01;77.70
69127;BME280;56688;50.234;19.292;2023-04-24T03:40:51;97527.95;;;4.97;77.67
69127;BME280;56688;50.234;19.292;2023-04-24T03:43:33;97528.53;;;4.95;77.92
69127;BME280;56688;50.234;19.292;2023-04-24T03:46:01;97530.50;;;4.96;78.01
69127;BME280;56688;50.234;19.292;2023-04-24T03:48:31;97529.15;;;4.96;77.96
69127;BME280;56688;50.234;19.292;2023-04-24T03:50:58;97527.40;;;5.02;78.38
69127;BME280;56688;50.234;19.292;2023-04-24T03:53:25;97528.63;;;5.10;78.58
69127;BME280;56688;50.234;19.292;2023-04-24T03:55:53;97528.73;;;5.18;78.49
69127;BME280;56688;50.234;19.292;2023-04-24T03:58:20;97536.20;;;5.26;78.43
69127;BME280;56688;50.234;19.292;2023-04-24T04:00:48;97528.79;;;5.34;78.31
69127;BME280;56688;50.234;19.292;2023-04-24T04:03:36;97532.98;;;5.43;78.58
69127;BME280;56688;50.234;19.292;2023-04-24T04:06:03;97535.70;;;5.50;78.50
69127;BME280;56688;50.234;19.292;2023-04-24T04:08:31;97536.31;;;5.58;78.51
69127;BME280;56688;50.234;19.292;2023-04-24T04:10:57;97531.89;;;5.68;78.65
69127;BME280;56688;50.234;19.292;2023-04-24T04:13:24;97529.19;;;5.79;78.93
69127;BME280;56688;50.234;19.292;2023-04-24T04:15:52;97532.17;;;5.94;78.36
69127;BME280;56688;50.234;19.292;2023-04-24T04:18:19;97531.50;;;6.10;78.84
69127;BME280;56688;50.234;19.292;2023-04-24T04:20:46;97531.17;;;6.26;79.00
69127;BME280;56688;50.234;19.292;2023-04-24T04:23:13;97531.80;;;6.43;78.92
69127;BME280;56688;50.234;19.292;2023-04-24T04:25:49;97529.70;;;6.61;78.76
69127;BME280;56688;50.234;19.292;2023-04-24T04:28:20;97530.33;;;6.78;77.70
69127;BME280;56688;50.234;19.292;2023-04-24T04:30:48;97532.88;;;6.91;77.89
69127;BME280;56688;50.234;19.292;2023-04-24T04:33:17;97528.55;;;7.05;77.75
69127;BME280;56688;50.234;19.292;2023-04-24T04:35:44;97527.11;;;7.19;77.39
69127;BME280;56688;50.234;19.292;2023-04-24T04:38:15;97524.21;;;7.35;76.99
69127;BME280;56688;50.234;19.292;2023-04-24T04:40:58;97521.45;;;7.53;76.86
69127;BME280;56688;50.234;19.292;2023-04-24T04:43:28;97516.83;;;7.69;76.70
69127;BME280;56688;50.234;19.292;2023-04-24T04:45:54;97514.98;;;7.85;76.22
69127;BME280;56688;50.234;19.292;2023-04-24T04:48:38;97515.16;;;8.04;75.93
69127;BME280;56688;50.234;19.292;2023-04-24T04:51:06;97519.86;;;8.21;75.31
69127;BME280;56688;50.234;19.292;2023-04-24T04:53:33;97517.78;;;8.38;74.94
69127;BME280;56688;50.234;19.292;2023-04-24T04:56:01;97519.01;;;8.57;74.92
69127;BME280;56688;50.234;19.292;2023-04-24T04:58:34;97518.12;;;8.72;74.87
69127;BME280;56688;50.234;19.292;2023-04-24T05:01:02;97518.78;;;8.88;74.57
69127;BME280;56688;50.234;19.292;2023-04-24T05:03:32;97517.67;;;9.06;74.39
69127;BME280;56688;50.234;19.292;2023-04-24T05:06:04;97516.95;;;9.26;74.13
69127;BME280;56688;50.234;19.292;2023-04-24T05:08:33;97515.82;;;9.46;73.58
69127;BME280;56688;50.234;19.292;2023-04-24T05:11:04;97518.56;;;9.67;73.57
69127;BME280;56688;50.234;19.292;2023-04-24T05:13:31;97513.85;;;9.87;73.22
69127;BME280;56688;50.234;19.292;2023-04-24T05:16:12;97513.70;;;10.08;72.64
69127;BME280;56688;50.234;19.292;2023-04-24T05:18:39;97517.70;;;10.25;72.04
69127;BME280;56688;50.234;19.292;2023-04-24T05:21:06;97520.39;;;10.41;70.91
69127;BME280;56688;50.234;19.292;2023-04-24T05:23:34;97521.17;;;10.63;70.71
69127;BME280;56688;50.234;19.292;2023-04-24T05:26:01;97519.34;;;10.86;70.35
69127;BME280;56688;50.234;19.292;2023-04-24T05:28:31;97519.47;;;11.12;69.86
69127;BME280;56688;50.234;19.292;2023-04-24T05:31:04;97514.63;;;11.40;69.68
69127;BME280;56688;50.234;19.292;2023-04-24T05:33:31;97513.45;;;11.68;69.29
69127;BME280;56688;50.234;19.292;2023-04-24T05:35:58;97512.63;;;11.97;68.87
69127;BME280;56688;50.234;19.292;2023-04-24T05:38:26;97507.12;;;12.32;67.60
69127;BME280;56688;50.234;19.292;2023-04-24T05:40:53;97509.48;;;12.70;64.41
69127;BME280;56688;50.234;19.292;2023-04-24T05:43:20;97507.00;;;13.14;60.91
69127;BME280;56688;50.234;19.292;2023-04-24T05:45:47;97503.02;;;13.65;57.46
69127;BME280;56688;50.234;19.292;2023-04-24T05:48:14;97499.36;;;14.19;56.02
69127;BME280;56688;50.234;19.292;2023-04-24T05:50:40;97500.53;;;14.78;54.88
69127;BME280;56688;50.234;19.292;2023-04-24T05:53:08;97501.39;;;15.30;50.90
69127;BME280;56688;50.234;19.292;2023-04-24T05:55:37;97498.52;;;15.86;49.99
69127;BME280;56688;50.234;19.292;2023-04-24T05:58:05;97495.60;;;16.40;49.38
69127;BME280;56688;50.234;19.292;2023-04-24T06:00:33;97492.27;;;16.90;49.14
69127;BME280;56688;50.234;19.292;2023-04-24T06:03:03;97492.79;;;17.48;48.51
69127;BME280;56688;50.234;19.292;2023-04-24T06:05:31;97488.47;;;18.10;46.83
69127;BME280;56688;50.234;19.292;2023-04-24T06:07:58;97484.90;;;18.72;45.44
69127;BME280;56688;50.234;19.292;2023-04-24T06:10:29;97486.14;;;19.35;43.17
69127;BME280;56688;50.234;19.292;2023-04-24T06:12:57;97484.31;;;19.94;42.10
69127;BME280;56688;50.234;19.292;2023-04-24T06:15:29;97478.94;;;20.47;41.11
69127;BME280;56688;50.234;19.292;2023-04-24T06:18:06;97474.75;;;21.00;40.24
69127;BME280;56688;50.234;19.292;2023-04-24T06:20:33;97476.70;;;21.53;38.43
69127;BME280;56688;50.234;19.292;2023-04-24T06:23:00;97473.96;;;22.02;36.34
69127;BME280;56688;50.234;19.292;2023-04-24T06:25:28;97476.26;;;22.47;34.50
69127;BME280;56688;50.234;19.292;2023-04-24T06:27:55;97471.66;;;22.86;34.14
69127;BME280;56688;50.234;19.292;2023-04-24T06:30:22;97470.72;;;23.22;33.20
69127;BME280;56688;50.234;19.292;2023-04-24T06:32:49;97468.05;;;23.65;30.98
69127;BME280;56688;50.234;19.292;2023-04-24T06:35:16;97466.64;;;23.85;29.38
69127;BME280;56688;50.234;19.292;2023-04-24T06:37:43;97461.52;;;23.97;29.39
69127;BME280;56688;50.234;19.292;2023-04-24T06:40:10;97463.00;;;24.18;29.84
69127;BME280;56688;50.234;19.292;2023-04-24T06:42:37;97459.79;;;24.41;28.91
69127;BME280;56688;50.234;19.292;2023-04-24T06:45:07;97457.73;;;24.57;28.54
69127;BME280;56688;50.234;19.292;2023-04-24T06:47:34;97452.05;;;24.62;28.06
69127;BME280;56688;50.234;19.292;2023-04-24T06:50:01;97450.80;;;24.62;27.44
69127;BME280;56688;50.234;19.292;2023-04-24T06:52:28;97448.91;;;24.60;26.97
69127;BME280;56688;50.234;19.292;2023-04-24T06:55:00;97446.35;;;24.66;27.48
69127;BME280;56688;50.234;19.292;2023-04-24T06:57:29;97444.76;;;24.84;26.86
69127;BME280;56688;50.234;19.292;2023-04-24T06:59:56;97446.30;;;24.99;27.28
69127;BME280;56688;50.234;19.292;2023-04-24T07:02:23;97444.82;;;25.02;27.03
69127;BME280;56688;50.234;19.292;2023-04-24T07:04:50;97446.93;;;25.20;26.81
69127;BME280;56688;50.234;19.292;2023-04-24T07:07:17;97442.27;;;25.46;25.80
69127;BME280;56688;50.234;19.292;2023-04-24T07:09:44;97442.14;;;25.63;24.91
69127;BME280;56688;50.234;19.292;2023-04-24T07:12:12;97435.04;;;25.90;25.18
69127;BME280;56688;50.234;19.292;2023-04-24T07:14:40;97428.50;;;26.31;24.30
69127;BME280;56688;50.234;19.292;2023-04-24T07:17:07;97424.25;;;26.67;24.25
69127;BME280;56688;50.234;19.292;2023-04-24T07:19:34;97424.73;;;26.86;23.35
69127;BME280;56688;50.234;19.292;2023-04-24T07:22:02;97419.96;;;27.13;23.86
69127;BME280;56688;50.234;19.292;2023-04-24T07:24:30;97418.34;;;27.52;24.30
69127;BME280;56688;50.234;19.292;2023-04-24T07:26:59;97421.91;;;27.85;23.09
69127;BME280;56688;50.234;19.292;2023-04-24T07:29:27;97424.08;;;27.88;22.35
69127;BME280;56688;50.234;19.292;2023-04-24T07:31:54;97424.23;;;27.96;22.59
69127;BME280;56688;50.234;19.292;2023-04-24T07:34:21;97424.48;;;28.08;21.61
69127;BME280;56688;50.234;19.292;2023-04-24T07:36:48;97425.48;;;28.09;22.29
69127;BME280;56688;50.234;19.292;2023-04-24T07:39:15;97422.64;;;28.07;21.68
69127;BME280;56688;50.234;19.292;2023-04-24T07:41:42;97419.96;;;27.87;21.13
69127;BME280;56688;50.234;19.292;2023-04-24T07:44:09;97422.00;;;27.72;21.39
69127;BME280;56688;50.234;19.292;2023-04-24T07:46:36;97419.48;;;27.85;22.68
69127;BME280;56688;50.234;19.292;2023-04-24T07:49:04;97419.44;;;27.98;22.69
69127;BME280;56688;50.234;19.292;2023-04-24T07:51:40;97413.93;;;28.28;23.02
69127;BME280;56688;50.234;19.292;2023-04-24T07:54:08;97403.81;;;28.85;21.69
69127;BME280;56688;50.234;19.292;2023-04-24T07:56:35;97402.12;;;29.36;22.01
69127;BME280;56688;50.234;19.292;2023-04-24T07:59:06;97402.42;;;29.36;20.87
69127;BME280;56688;50.234;19.292;2023-04-24T08:01:33;97400.69;;;29.33;20.93
69127;BME280;56688;50.234;19.292;2023-04-24T08:04:00;97399.29;;;29.40;20.09
69127;BME280;56688;50.234;19.292;2023-04-24T08:06:28;97397.67;;;29.43;19.99
69127;BME280;56688;50.234;19.292;2023-04-24T08:08:57;97400.63;;;29.64;21.11
69127;BME280;56688;50.234;19.292;2023-04-24T08:11:25;97391.51;;;29.79;19.90
69127;BME280;56688;50.234;19.292;2023-04-24T08:13:52;97389.03;;;29.58;21.56
69127;BME280;56688;50.234;19.292;2023-04-24T08:16:19;97390.40;;;29.68;21.59
69127;BME280;56688;50.234;19.292;2023-04-24T08:18:46;97384.98;;;29.98;20.59
69127;BME280;56688;50.234;19.292;2023-04-24T08:21:13;97389.67;;;30.42;20.47
69127;BME280;56688;50.234;19.292;2023-04-24T08:23:44;97379.48;;;30.21;19.41
69127;BME280;56688;50.234;19.292;2023-04-24T08:26:12;97384.56;;;29.92;18.90
69127;BME280;56688;50.234;19.292;2023-04-24T08:28:39;97382.64;;;29.84;19.94
69127;BME280;56688;50.234;19.292;2023-04-24T08:31:06;97381.34;;;30.11;20.21
69127;BME280;56688;50.234;19.292;2023-04-24T08:33:33;97375.85;;;30.35;20.12
69127;BME280;56688;50.234;19.292;2023-04-24T08:36:03;97376.77;;;30.25;19.51
69127;BME280;56688;50.234;19.292;2023-04-24T08:38:30;97370.43;;;30.05;20.14
69127;BME280;56688;50.234;19.292;2023-04-24T08:40:59;97372.63;;;29.96;20.34
69127;BME280;56688;50.234;19.292;2023-04-24T08:43:26;97369.89;;;29.68;20.05
69127;BME280;56688;50.234;19.292;2023-04-24T08:45:55;97374.67;;;29.50;20.08
69127;BME280;56688;50.234;19.292;2023-04-24T08:48:23;97368.89;;;29.32;19.75
69127;BME280;56688;50.234;19.292;2023-04-24T08:50:58;97369.80;;;29.26;19.80
69127;BME280;56688;50.234;19.292;2023-04-24T08:53:26;97370.17;;;29.13;20.40
69127;BME280;56688;50.234;19.292;2023-04-24T08:55:54;97367.10;;;28.82;19.86
69127;BME280;56688;50.234;19.292;2023-04-24T08:58:25;97375.49;;;28.44;19.86
69127;BME280;56688;50.234;19.292;2023-04-24T09:00:55;97373.92;;;27.98;20.74
69127;BME280;56688;50.234;19.292;2023-04-24T09:03:22;97378.30;;;27.55;20.58
69127;BME280;56688;50.234;19.292;2023-04-24T09:05:49;97376.66;;;27.22;21.16
69127;BME280;56688;50.234;19.292;2023-04-24T09:08:18;97372.60;;;26.88;22.90
69127;BME280;56688;50.234;19.292;2023-04-24T09:10:46;97368.52;;;26.68;23.34
69127;BME280;56688;50.234;19.292;2023-04-24T09:13:18;97369.10;;;26.67;23.81
69127;BME280;56688;50.234;19.292;2023-04-24T09:15:45;97365.44;;;26.77;22.56
69127;BME280;56688;50.234;19.292;2023-04-24T09:18:12;97360.30;;;26.76;22.33
69127;BME280;56688;50.234;19.292;2023-04-24T09:23:28;97362.44;;;26.81;23.05
69127;BME280;56688;50.234;19.292;2023-04-24T09:25:56;97357.84;;;26.69;23.42
69127;BME280;56688;50.234;19.292;2023-04-24T09:28:31;97356.55;;;26.81;23.74
69127;BME280;56688;50.234;19.292;2023-04-24T09:33:33;97354.34;;;26.83;23.17
69127;BME280;56688;50.234;19.292;2023-04-24T09:36:00;97349.86;;;26.79;22.88
69127;BME280;56688;50.234;19.292;2023-04-24T09:38:32;97349.06;;;26.78;22.91
69127;BME280;56688;50.234;19.292;2023-04-24T09:41:00;97347.10;;;26.89;23.48
69127;BME280;56688;50.234;19.292;2023-04-24T09:43:30;97339.38;;;26.74;21.83
69127;BME280;56688;50.234;19.292;2023-04-24T09:45:58;97336.81;;;26.57;22.58
69127;BME280;56688;50.234;19.292;2023-04-24T09:48:30;97336.09;;;26.76;22.91
69127;BME280;56688;50.234;19.292;2023-04-24T09:50:58;97333.44;;;27.05;23.14
69127;BME280;56688;50.234;19.292;2023-04-24T09:53:25;97326.21;;;27.36;23.02
69127;BME280;56688;50.234;19.292;2023-04-24T09:55:53;97326.63;;;27.53;22.85
69127;BME280;56688;50.234;19.292;2023-04-24T09:58:28;97331.80;;;27.35;22.82
69127;BME280;56688;50.234;19.292;2023-04-24T10:01:11;97328.08;;;27.06;23.14
69127;BME280;56688;50.234;19.292;2023-04-24T10:03:38;97331.71;;;26.84;23.24
69127;BME280;56688;50.234;19.292;2023-04-24T10:06:12;97327.14;;;26.67;22.92
69127;BME280;56688;50.234;19.292;2023-04-24T10:08:39;97325.97;;;26.60;23.06
69127;BME280;56688;50.234;19.292;2023-04-24T10:11:07;97326.31;;;26.50;23.81
69127;BME280;56688;50.234;19.292;2023-04-24T10:13:35;97326.11;;;26.49;23.46
69127;BME280;56688;50.234;19.292;2023-04-24T10:16:03;97322.41;;;26.37;21.71
69127;BME280;56688;50.234;19.292;2023-04-24T10:18:30;97321.05;;;26.24;22.41
69127;BME280;56688;50.234;19.292;2023-04-24T10:21:00;97317.13;;;26.17;22.02
69127;BME280;56688;50.234;19.292;2023-04-24T10:23:27;97321.39;;;25.97;23.63
69127;BME280;56688;50.234;19.292;2023-04-24T10:25:55;97320.73;;;25.62;23.07
69127;BME280;56688;50.234;19.292;2023-04-24T10:28:24;97316.97;;;25.38;22.75
69127;BME280;56688;50.234;19.292;2023-04-24T10:30:51;97313.81;;;25.22;21.72
69127;BME280;56688;50.234;19.292;2023-04-24T10:33:22;97313.63;;;25.28;23.72
69127;BME280;56688;50.234;19.292;2023-04-24T10:35:50;97310.50;;;25.39;23.33
69127;BME280;56688;50.234;19.292;2023-04-24T10:38:23;97307.36;;;25.40;22.03
69127;BME280;56688;50.234;19.292;2023-04-24T10:40:51;97301.10;;;25.41;22.85
69127;BME280;56688;50.234;19.292;2023-04-24T10:43:23;97303.14;;;25.58;22.95
69127;BME280;56688;50.234;19.292;2023-04-24T10:46:06;97299.02;;;25.74;22.79
69127;BME280;56688;50.234;19.292;2023-04-24T10:48:33;97291.11;;;25.82;23.38
69127;BME280;56688;50.234;19.292;2023-04-24T10:51:01;97289.98;;;25.89;23.42
69127;BME280;56688;50.234;19.292;2023-04-24T10:53:29;97288.88;;;25.98;23.63
69127;BME280;56688;50.234;19.292;2023-04-24T10:56:05;97279.69;;;26.08;23.31
69127;BME280;56688;50.234;19.292;2023-04-24T10:58:49;97282.71;;;26.25;23.45
69127;BME280;56688;50.234;19.292;2023-04-24T11:01:25;97283.11;;;26.29;22.50
69127;BME280;56688;50.234;19.292;2023-04-24T11:03:56;97283.95;;;26.10;22.96
69127;BME280;56688;50.234;19.292;2023-04-24T11:06:33;97281.69;;;25.95;24.52
69127;BME280;56688;50.234;19.292;2023-04-24T11:09:04;97281.21;;;25.89;24.23
69127;BME280;56688;50.234;19.292;2023-04-24T11:11:34;97282.64;;;25.62;25.11
69127;BME280;56688;50.234;19.292;2023-04-24T11:14:03;97287.38;;;25.28;25.10
69127;BME280;56688;50.234;19.292;2023-04-24T11:16:54;97287.94;;;24.87;25.15
69127;BME280;56688;50.234;19.292;2023-04-24T11:19:24;97289.66;;;24.51;25.90
69127;BME280;56688;50.234;19.292;2023-04-24T11:22:01;97287.13;;;24.26;25.94
69127;BME280;56688;50.234;19.292;2023-04-24T11:29:47;97299.40;;;23.65;28.76
69127;BME280;56688;50.234;19.292;2023-04-24T11:32:16;97303.27;;;23.34;30.25
69127;BME280;56688;50.234;19.292;2023-04-24T11:34:47;97303.55;;;22.98;30.32
69127;BME280;56688;50.234;19.292;2023-04-24T11:37:15;97309.79;;;22.66;30.93
69127;BME280;56688;50.234;19.292;2023-04-24T11:39:42;97311.92;;;22.47;31.92
69127;BME280;56688;50.234;19.292;2023-04-24T11:42:09;97292.19;;;22.31;31.60
69127;BME280;56688;50.234;19.292;2023-04-24T11:44:37;97309.06;;;22.22;32.20
69127;BME280;56688;50.234;19.292;2023-04-24T11:47:05;97308.98;;;22.11;32.39
69127;BME280;56688;50.234;19.292;2023-04-24T11:49:33;97308.99;;;21.95;32.04
69127;BME280;56688;50.234;19.292;2023-04-24T11:52:04;97307.00;;;21.69;32.97
69127;BME280;56688;50.234;19.292;2023-04-24T11:54:32;97313.02;;;21.51;33.55
69127;BME280;56688;50.234;19.292;2023-04-24T11:56:59;97310.58;;;21.39;34.33
69127;BME280;56688;50.234;19.292;2023-04-24T11:59:26;97312.13;;;21.31;34.81
69127;BME280;56688;50.234;19.292;2023-04-24T12:01:53;97313.89;;;21.28;34.77
69127;BME280;56688;50.234;19.292;2023-04-24T12:04:20;97310.15;;;21.28;34.66
69127;BME280;56688;50.234;19.292;2023-04-24T12:07:03;97310.25;;;21.28;34.22
69127;BME280;56688;50.234;19.292;2023-04-24T12:09:48;97306.62;;;21.26;34.59
69127;BME280;56688;50.234;19.292;2023-04-24T12:12:18;97303.22;;;21.31;34.60
69127;BME280;56688;50.234;19.292;2023-04-24T12:14:48;97300.02;;;21.29;33.97
69127;BME280;56688;50.234;19.292;2023-04-24T12:17:16;97304.96;;;21.30;34.71
69127;BME280;56688;50.234;19.292;2023-04-24T12:19:47;97302.62;;;21.32;34.00
69127;BME280;56688;50.234;19.292;2023-04-24T12:22:15;97299.70;;;21.36;34.82
69127;BME280;56688;50.234;19.292;2023-04-24T12:24:59;97302.17;;;21.44;35.78
69127;BME280;56688;50.234;19.292;2023-04-24T12:27:30;97307.13;;;21.43;35.37
69127;BME280;56688;50.234;19.292;2023-04-24T12:29:58;97307.73;;;21.30;34.85
69127;BME280;56688;50.234;19.292;2023-04-24T12:32:26;97307.52;;;21.03;35.24
69127;BME280;56688;50.234;19.292;2023-04-24T12:34:55;97309.64;;;20.75;35.53
69127;BME280;56688;50.234;19.292;2023-04-24T12:37:24;97308.76;;;20.62;37.04
69127;BME280;56688;50.234;19.292;2023-04-24T12:42:29;97304.88;;;20.48;37.59
69127;BME280;56688;50.234;19.292;2023-04-24T12:44:58;97304.95;;;20.45;37.99
69127;BME280;56688;50.234;19.292;2023-04-24T12:47:27;97300.73;;;20.41;37.47
69127;BME280;56688;50.234;19.292;2023-04-24T12:49:55;97303.79;;;20.36;37.63
69127;BME280;56688;50.234;19.292;2023-04-24T12:52:23;97305.60;;;20.23;37.65
69127;BME280;56688;50.234;19.292;2023-04-24T12:54:53;97312.93;;;20.09;38.14
69127;BME280;56688;50.234;19.292;2023-04-24T12:57:22;97319.53;;;20.00;38.68
69127;BME280;56688;50.234;19.292;2023-04-24T12:59:50;97319.23;;;19.95;39.10
69127;BME280;56688;50.234;19.292;2023-04-24T13:02:17;97315.02;;;19.90;38.93
69127;BME280;56688;50.234;19.292;2023-04-24T13:04:46;97320.02;;;19.88;40.00
69127;BME280;56688;50.234;19.292;2023-04-24T13:07:14;97318.42;;;19.92;39.54
69127;BME280;56688;50.234;19.292;2023-04-24T13:09:42;97316.67;;;19.94;39.67
69127;BME280;56688;50.234;19.292;2023-04-24T13:12:10;97316.25;;;19.94;38.98
69127;BME280;56688;50.234;19.292;2023-04-24T13:14:38;97319.23;;;19.79;39.06
69127;BME280;56688;50.234;19.292;2023-04-24T13:17:05;97315.85;;;19.68;39.49